Time;durP1;ratioP1;P1;durP2;ratioP2;P2;SDS_P1;SDS_P2;PMS_P1;PMS_P2;Temp;Humidity;BMP_temperature;BMP_pressure;BME280_temperature;BME280_humidity;BME280_pressure;Samples;Min_cycle;Max_cycle;Signal;HPM_P1;HPM_P2
2021/07/20 00:02:32;;;;;;;4.78;3.53;;;24.70;77.90;;;;;;5070969;28;20025;-75
2021/07/20 00:04:57;;;;;;;4.60;3.33;;;24.70;77.80;;;;;;5056599;28;20491;-75
2021/07/20 00:07:23;;;;;;;6.60;3.83;;;24.70;76.80;;;;;;5093975;28;20053;-75
2021/07/20 00:09:49;;;;;;;4.57;3.33;;;24.70;77.50;;;;;;5093448;28;20689;-76
2021/07/20 00:12:14;;;;;;;7.20;3.67;;;24.70;77.60;;;;;;5092623;28;20055;-76
2021/07/20 00:14:40;;;;;;;10.27;3.78;;;24.70;77.70;;;;;;5092871;28;20072;-76
2021/07/20 00:17:06;;;;;;;7.32;2.97;;;24.70;77.90;;;;;;5092770;28;20039;-76
2021/07/20 00:19:32;;;;;;;5.53;3.50;;;24.70;78.00;;;;;;5074567;28;20636;-76
2021/07/20 00:21:57;;;;;;;3.50;3.17;;;24.70;78.20;;;;;;5091973;28;20032;-76
2021/07/20 00:24:23;;;;;;;7.00;3.47;;;24.70;78.60;;;;;;5091065;28;20017;-76
2021/07/20 00:26:49;;;;;;;8.52;3.25;;;24.70;78.10;;;;;;5092967;28;20025;-76
2021/07/20 00:29:14;;;;;;;12.45;3.00;;;24.60;78.30;;;;;;5075285;28;20020;-76
2021/07/20 00:31:40;;;;;;;5.28;3.63;;;24.60;78.80;;;;;;5093631;28;20413;-76
2021/07/20 00:34:06;;;;;;;7.55;3.80;;;24.60;78.60;;;;;;5093188;28;20051;-76
2021/07/20 00:36:33;;;;;;;5.55;3.50;;;24.60;79.00;;;;;;5093521;28;20016;-76
2021/07/20 00:38:59;;;;;;;5.47;3.33;;;24.60;78.90;;;;;;5093395;28;20028;-76
2021/07/20 00:41:25;;;;;;;8.45;3.72;;;24.60;78.80;;;;;;5093353;28;20052;-76
2021/07/20 00:43:51;;;;;;;6.07;3.75;;;24.60;78.70;;;;;;5093274;28;20464;-76
2021/07/20 00:46:16;;;;;;;8.63;3.25;;;24.60;78.60;;;;;;5093491;28;20032;-76
2021/07/20 00:48:42;;;;;;;6.03;3.53;;;24.60;78.50;;;;;;5093535;28;20045;-76
2021/07/20 00:51:08;;;;;;;7.68;3.92;;;24.60;78.60;;;;;;5093223;28;20077;-76
2021/07/20 00:53:34;;;;;;;8.90;3.47;;;24.60;78.40;;;;;;5083183;28;20033;-76
2021/07/20 00:56:00;;;;;;;9.63;3.55;;;24.60;78.40;;;;;;5073143;28;20108;-76
2021/07/20 00:58:27;;;;;;;5.35;3.80;;;24.60;78.40;;;;;;5079225;28;20115;-76
2021/07/20 01:00:53;;;;;;;4.95;3.70;;;24.60;78.50;;;;;;5093069;28;20085;-76
2021/07/20 01:03:19;;;;;;;7.25;3.15;;;24.60;79.00;;;;;;5091060;28;20036;-76
2021/07/20 01:05:45;;;;;;;11.98;3.53;;;24.60;78.90;;;;;;5093000;28;20020;-76
2021/07/20 01:08:13;;;;;;;6.93;3.90;;;24.60;78.40;;;;;;5093002;28;20020;-76
2021/07/20 01:10:42;;;;;;;4.22;3.85;;;24.60;78.40;;;;;;5092985;28;20096;-76
2021/07/20 01:13:10;;;;;;;3.50;3.20;;;24.60;78.30;;;;;;5082782;28;20021;-76
2021/07/20 01:15:40;;;;;;;5.40;3.40;;;24.60;77.90;;;;;;5073772;28;20032;-76
2021/07/20 01:18:09;;;;;;;12.43;3.60;;;24.60;78.30;;;;;;5073854;28;20473;-75
2021/07/20 01:20:35;;;;;;;6.28;3.58;;;24.60;79.00;;;;;;5066942;22;20057;-76
2021/07/20 01:23:17;;;;;;;5.10;3.20;;;24.60;78.90;;;;;;5031655;28;20037;-76
2021/07/20 01:25:43;;;;;;;5.03;4.00;;;24.60;78.90;;;;;;5032469;28;20021;-76
2021/07/20 01:28:17;;;;;;;8.68;3.75;;;24.60;79.20;;;;;;5032646;28;20018;-75
2021/07/20 01:30:44;;;;;;;3.67;3.28;;;24.60;79.30;;;;;;5031994;28;20041;-76
2021/07/20 01:33:12;;;;;;;6.05;3.42;;;24.60;79.50;;;;;;5031798;28;20029;-76
2021/07/20 01:35:39;;;;;;;5.10;3.13;;;24.60;79.20;;;;;;5032714;28;20030;-76
2021/07/20 01:38:08;;;;;;;5.65;3.90;;;24.50;79.80;;;;;;5035956;28;20033;-76
2021/07/20 01:40:35;;;;;;;8.82;3.50;;;24.50;79.40;;;;;;5036920;28;20021;-76
2021/07/20 01:43:02;;;;;;;7.40;4.20;;;24.50;79.30;;;;;;5036360;28;20036;-76
2021/07/20 01:45:30;;;;;;;10.50;4.00;;;24.40;79.70;;;;;;5035221;28;20028;-76
2021/07/20 01:47:58;;;;;;;6.38;3.90;;;24.40;80.00;;;;;;5036672;28;20028;-76
2021/07/20 01:50:25;;;;;;;3.88;3.55;;;24.40;80.10;;;;;;5036209;28;20053;-76
2021/07/20 01:52:52;;;;;;;6.57;3.80;;;24.40;80.50;;;;;;5036276;28;20041;-76
2021/07/20 01:55:18;;;;;;;5.72;3.60;;;24.30;80.60;;;;;;5035178;28;20052;-76
2021/07/20 01:57:44;;;;;;;6.00;3.20;;;24.30;81.00;;;;;;5036447;28;20079;-75
2021/07/20 02:00:16;;;;;;;4.03;3.22;;;24.30;80.90;;;;;;5035167;28;20033;-76
2021/07/20 02:08:31;;;;;;;10.77;3.58;;;24.10;81.90;;;;;;5036323;28;20032;-76
2021/07/20 02:10:59;;;;;;;8.63;4.18;;;24.20;81.90;;;;;;5035187;28;20025;-76
2021/07/20 02:13:27;;;;;;;5.68;4.38;;;24.10;82.20;;;;;;5034746;28;20558;-75
2021/07/20 02:16:14;;;;;;;4.85;3.25;;;24.10;82.40;;;;;;5036142;28;20075;-76
2021/07/20 02:18:51;;;;;;;11.85;4.03;;;24.10;82.50;;;;;;5036067;28;20115;-76
2021/07/20 02:21:19;;;;;;;4.80;3.08;;;24.10;82.70;;;;;;5034461;28;20099;-75
2021/07/20 02:23:50;;;;;;;5.90;3.47;;;24.10;82.70;;;;;;5036007;28;20053;-76
2021/07/20 02:26:16;;;;;;;5.60;3.97;;;24.00;83.00;;;;;;5034260;28;20103;-76
2021/07/20 02:28:43;;;;;;;8.82;3.55;;;24.00;83.70;;;;;;5035971;28;20075;-76
2021/07/20 02:31:10;;;;;;;5.35;3.58;;;23.90;84.00;;;;;;5035713;28;20018;-75
2021/07/20 02:33:36;;;;;;;5.45;3.80;;;24.00;84.30;;;;;;5034333;28;20022;-75
2021/07/20 02:36:04;;;;;;;8.05;4.05;;;24.00;83.80;;;;;;5035788;28;20562;-76
2021/07/20 02:38:31;;;;;;;4.95;3.47;;;24.00;83.90;;;;;;5035828;28;20116;-75
2021/07/20 02:40:58;;;;;;;8.05;3.83;;;24.00;84.10;;;;;;5035743;28;20469;-76
2021/07/20 02:43:26;;;;;;;5.38;3.22;;;24.00;84.20;;;;;;5035476;28;20033;-76
2021/07/20 02:45:54;;;;;;;8.68;3.55;;;24.00;84.60;;;;;;5035320;28;20029;-76
2021/07/20 02:48:22;;;;;;;5.80;3.33;;;24.00;84.50;;;;;;5035372;28;20441;-76
2021/07/20 02:50:50;;;;;;;4.88;3.70;;;24.00;84.30;;;;;;5035344;28;20021;-75
2021/07/20 02:53:17;;;;;;;11.48;2.88;;;24.00;84.40;;;;;;5035440;28;20564;-76
2021/07/20 02:55:44;;;;;;;8.10;4.43;;;24.00;84.30;;;;;;5034181;28;20043;-76
2021/07/20 02:58:10;;;;;;;6.90;3.42;;;24.00;84.10;;;;;;5035419;28;20079;-76
2021/07/20 03:00:38;;;;;;;8.52;3.40;;;24.00;83.80;;;;;;5035315;28;20607;-76
2021/07/20 03:03:04;;;;;;;8.68;3.42;;;24.00;83.30;;;;;;5034911;28;20065;-76
2021/07/20 03:05:30;;;;;;;6.30;3.78;;;24.00;83.70;;;;;;5033662;28;20124;-76
2021/07/20 03:07:59;;;;;;;5.28;3.58;;;24.00;84.60;;;;;;5035307;28;20032;-76
2021/07/20 03:10:31;;;;;;;4.60;3.30;;;24.00;84.50;;;;;;5034084;28;20036;-76
2021/07/20 03:13:05;;;;;;;6.10;3.58;;;23.90;84.70;;;;;;5034700;28;20029;-76
2021/07/20 03:15:33;;;;;;;14.98;3.80;;;23.90;84.80;;;;;;5033566;28;20457;-76
2021/07/20 03:18:04;;;;;;;4.45;3.28;;;23.90;85.60;;;;;;5035063;28;20021;-75
2021/07/20 03:20:31;;;;;;;7.57;4.53;;;23.90;84.70;;;;;;5043945;28;20060;-76
2021/07/20 03:22:59;;;;;;;9.27;3.60;;;23.90;84.40;;;;;;5054513;28;20029;-75
2021/07/20 03:25:25;;;;;;;5.03;3.47;;;23.90;84.20;;;;;;5036554;28;20120;-76
2021/07/20 03:27:53;;;;;;;7.05;3.72;;;23.90;84.60;;;;;;5054567;28;20025;-76
2021/07/20 03:30:19;;;;;;;4.40;4.00;;;23.90;84.50;;;;;;5036505;28;20499;-76
2021/07/20 03:32:47;;;;;;;5.22;3.85;;;24.00;84.30;;;;;;5054290;28;20029;-76
2021/07/20 03:35:14;;;;;;;7.30;3.47;;;23.90;83.80;;;;;;5036634;28;20375;-76
2021/07/20 03:37:41;;;;;;;6.45;3.40;;;23.90;83.60;;;;;;5036382;28;20040;-76
2021/07/20 03:40:07;;;;;;;5.32;3.53;;;23.90;83.60;;;;;;5054532;28;20079;-76
2021/07/20 03:42:33;;;;;;;5.15;3.58;;;24.00;83.50;;;;;;5036112;28;20468;-76
2021/07/20 03:44:59;;;;;;;7.85;3.58;;;24.00;83.40;;;;;;5054430;28;20025;-76
2021/07/20 03:47:25;;;;;;;10.15;3.47;;;24.00;83.20;;;;;;5054277;28;20104;-75
2021/07/20 03:49:53;;;;;;;11.00;3.72;;;24.00;82.70;;;;;;5054136;28;20025;-76
2021/07/20 03:52:20;;;;;;;8.32;3.72;;;24.00;83.00;;;;;;5036083;28;20029;-76
2021/07/20 03:54:46;;;;;;;5.28;3.70;;;24.00;83.10;;;;;;5054013;28;20025;-76
2021/07/20 03:57:17;;;;;;;9.38;3.28;;;23.90;83.20;;;;;;5054149;28;20020;-76
2021/07/20 03:59:44;;;;;;;8.57;4.00;;;23.90;83.50;;;;;;5053273;28;20525;-76
2021/07/20 04:02:12;;;;;;;4.88;3.90;;;23.90;83.60;;;;;;5053749;28;20071;-76
2021/07/20 04:04:42;;;;;;;5.43;3.63;;;23.90;83.60;;;;;;5049080;28;20025;-75
2021/07/20 04:07:13;;;;;;;9.98;3.75;;;23.80;83.60;;;;;;5033744;28;20056;-76
2021/07/20 04:09:40;;;;;;;11.27;3.97;;;23.80;83.50;;;;;;5046479;28;20044;-76
2021/07/20 04:12:07;;;;;;;6.93;3.55;;;23.80;83.70;;;;;;5053878;28;20060;-76
2021/07/20 04:14:33;;;;;;;7.55;3.67;;;23.70;83.60;;;;;;5053597;28;20017;-76
2021/07/20 04:17:00;;;;;;;8.65;3.45;;;23.70;83.70;;;;;;5035609;28;20025;-76
2021/07/20 04:19:26;;;;;;;8.38;4.30;;;23.70;83.50;;;;;;5053542;28;20078;-75
2021/07/20 04:21:52;;;;;;;7.93;3.40;;;23.60;83.90;;;;;;5053557;28;20103;-76
2021/07/20 04:24:18;;;;;;;6.43;3.55;;;23.60;83.70;;;;;;5053225;28;20059;-76
2021/07/20 04:26:45;;;;;;;11.98;3.67;;;23.60;82.90;;;;;;5035789;28;20025;-76
2021/07/20 04:29:12;;;;;;;5.22;3.58;;;23.60;82.40;;;;;;5053728;28;20154;-76
2021/07/20 04:31:40;;;;;;;12.88;3.78;;;23.60;81.80;;;;;;5053403;28;20036;-75
2021/07/20 04:34:10;;;;;;;9.25;3.55;;;23.60;81.20;;;;;;5053144;28;20017;-76
2021/07/20 04:36:38;;;;;;;14.75;5.00;;;23.60;81.00;;;;;;5053307;28;20032;-76
2021/07/20 04:39:04;;;;;;;6.95;3.17;;;23.60;80.90;;;;;;5053374;28;20107;-76
2021/07/20 04:41:31;;;;;;;11.57;3.30;;;23.60;81.90;;;;;;5053307;28;20079;-76
2021/07/20 04:43:57;;;;;;;12.93;4.07;;;23.60;81.90;;;;;;5052959;28;20107;-76
2021/07/20 04:46:23;;;;;;;10.05;3.65;;;23.50;81.60;;;;;;5035072;28;20059;-76
2021/07/20 04:48:49;;;;;;;8.10;3.47;;;23.50;81.50;;;;;;5053016;28;20025;-76
2021/07/20 04:51:15;;;;;;;6.88;3.30;;;23.50;81.70;;;;;;5053087;28;20484;-76
2021/07/20 04:53:42;;;;;;;5.72;3.65;;;23.50;80.60;;;;;;5035224;28;20025;-76
2021/07/20 04:56:08;;;;;;;13.25;3.72;;;23.50;79.60;;;;;;5049586;28;20032;-75
2021/07/20 04:58:35;;;;;;;7.22;3.88;;;23.50;80.60;;;;;;5052670;28;20078;-75
2021/07/20 05:01:03;;;;;;;10.15;3.97;;;23.50;80.80;;;;;;5052537;28;20036;-75
2021/07/20 05:03:32;;;;;;;8.05;3.67;;;23.50;81.30;;;;;;5052515;28;20075;-75
2021/07/20 05:05:59;;;;;;;10.05;3.35;;;23.50;81.40;;;;;;5053325;28;20230;-75
2021/07/20 05:08:27;;;;;;;10.52;4.80;;;23.50;81.70;;;;;;5052890;28;20480;-75
2021/07/20 05:10:55;;;;;;;9.15;3.28;;;23.60;81.20;;;;;;5034656;28;20024;-76
2021/07/20 05:13:24;;;;;;;15.45;3.78;;;23.60;80.50;;;;;;5052540;28;20017;-75
2021/07/20 05:15:56;;;;;;;6.55;3.38;;;23.60;81.20;;;;;;5052699;28;20059;-75
2021/07/20 05:18:23;;;;;;;7.10;3.50;;;23.60;80.70;;;;;;5051872;28;20021;-76
2021/07/20 05:20:54;;;;;;;13.40;3.42;;;23.70;80.20;;;;;;5053109;28;20052;-76
2021/07/20 05:23:21;;;;;;;10.52;3.38;;;23.70;79.80;;;;;;5051656;28;20040;-75
2021/07/20 05:25:55;;;;;;;10.43;3.80;;;23.80;80.10;;;;;;5052306;28;20495;-76
2021/07/20 05:31:18;;;;;;;5.25;3.33;;;23.90;79.00;;;;;;5041525;28;20431;-77
2021/07/20 05:33:43;;;;;;;6.53;3.58;;;23.90;79.50;;;;;;5052646;28;20029;-77
2021/07/20 05:36:10;;;;;;;5.35;3.63;;;23.90;79.00;;;;;;5051646;28;20079;-75
2021/07/20 05:38:36;;;;;;;4.68;2.97;;;24.00;79.20;;;;;;5052020;28;20086;-74
2021/07/20 05:41:01;;;;;;;12.63;3.40;;;24.00;79.10;;;;;;5052817;28;20104;-74
2021/07/20 05:43:29;;;;;;;6.25;3.58;;;24.00;79.00;;;;;;5052423;28;20587;-74
2021/07/20 05:45:59;;;;;;;13.00;3.50;;;24.00;78.80;;;;;;5052508;28;20028;-74
2021/07/20 05:48:25;;;;;;;8.98;3.63;;;24.00;79.00;;;;;;5052391;28;20098;-74
2021/07/20 05:50:53;;;;;;;9.25;3.58;;;24.00;79.10;;;;;;5052526;28;20037;-76
2021/07/20 05:53:22;;;;;;;10.88;4.15;;;24.00;79.40;;;;;;5034505;28;20045;-77
2021/07/20 05:55:50;;;;;;;7.00;3.38;;;24.00;80.60;;;;;;5052347;28;20033;-76
2021/07/20 05:58:19;;;;;;;8.70;3.58;;;24.10;80.20;;;;;;5052410;28;20021;-76
2021/07/20 06:00:45;;;;;;;13.15;4.97;;;24.20;80.70;;;;;;5052302;28;20423;-76
2021/07/20 06:03:15;;;;;;;9.15;3.10;;;24.20;80.70;;;;;;5052013;28;20071;-77
2021/07/20 06:05:47;;;;;;;9.15;3.28;;;24.30;80.40;;;;;;5052226;28;20075;-76
2021/07/20 06:08:14;;;;;;;;;;;24.40;80.70;;;;;;5034581;28;20024;-76
2021/07/20 06:10:41;;;;;;;10.65;3.13;;;24.40;81.30;;;;;;5034466;28;20304;-76
2021/07/20 06:13:07;;;;;;;9.18;3.13;;;24.50;81.60;;;;;;5034093;28;20013;-76
2021/07/20 06:15:33;;;;;;;5.57;3.95;;;24.50;82.20;;;;;;5052053;28;20071;-77
2021/07/20 06:17:59;;;;;;;7.10;3.70;;;24.50;82.30;;;;;;5051923;28;20824;-76
2021/07/20 06:20:25;;;;;;;7.15;3.53;;;24.60;83.00;;;;;;5051962;28;20133;-76
2021/07/20 06:22:54;;;;;;;10.57;3.38;;;24.60;82.60;;;;;;5053066;28;20175;-76
2021/07/20 06:25:24;;;;;;;6.10;3.67;;;24.60;83.40;;;;;;5055863;28;20037;-76
2021/07/20 06:27:51;;;;;;;8.88;4.60;;;24.70;83.50;;;;;;5052414;28;20032;-76
2021/07/20 06:30:19;;;;;;;6.15;3.05;;;24.70;85.50;;;;;;5038387;28;20033;-76
2021/07/20 06:32:46;;;;;;;7.40;3.50;;;24.70;86.80;;;;;;5041959;28;20021;-74
2021/07/20 06:35:14;;;;;;;8.10;4.75;;;24.80;87.70;;;;;;5044079;28;20078;-74
2021/07/20 06:37:46;;;;;;;15.00;3.95;;;24.90;87.90;;;;;;5045509;28;20885;-73
2021/07/20 06:40:17;;;;;;;15.80;4.22;;;24.90;88.10;;;;;;5034519;28;20025;-74
2021/07/20 06:42:44;;;;;;;15.10;4.20;;;25.00;88.40;;;;;;5034417;28;20036;-73
2021/07/20 06:45:13;;;;;;;8.85;3.75;;;25.00;88.60;;;;;;5034472;28;20090;-74
2021/07/20 06:47:45;;;;;;;12.18;3.53;;;25.10;87.90;;;;;;5034437;28;20557;-73
2021/07/20 06:50:14;;;;;;;13.32;3.55;;;25.10;85.80;;;;;;5035360;28;20369;-74
2021/07/20 06:52:42;;;;;;;8.55;4.03;;;25.20;84.60;;;;;;5035178;28;20108;-74
2021/07/20 06:55:09;;;;;;;13.40;4.38;;;25.20;84.30;;;;;;5035281;28;20029;-74
2021/07/20 06:57:38;;;;;;;15.32;3.67;;;25.30;84.30;;;;;;5040586;28;20039;-73
2021/07/20 07:00:06;;;;;;;9.23;3.75;;;25.30;84.20;;;;;;5048090;28;20695;-76
2021/07/20 07:02:32;;;;;;;9.30;4.03;;;25.30;85.90;;;;;;5043759;28;20025;-76
2021/07/20 07:05:16;;;;;;;10.07;4.07;;;25.30;88.50;;;;;;5044462;28;20095;-76
2021/07/20 07:07:44;;;;;;;9.07;4.55;;;25.40;89.70;;;;;;5044212;28;20396;-76
2021/07/20 07:10:14;;;;;;;16.20;3.97;;;25.40;90.50;;;;;;5043446;28;20021;-76
2021/07/20 07:12:41;;;;;;;15.30;3.95;;;25.50;88.90;;;;;;5043744;28;20025;-76
2021/07/20 07:15:08;;;;;;;11.90;4.25;;;25.50;88.20;;;;;;5047406;28;20032;-76
2021/07/20 07:17:35;;;;;;;15.55;4.15;;;25.60;87.00;;;;;;5046237;28;20588;-76
2021/07/20 07:20:04;;;;;;;8.23;4.00;;;25.70;86.20;;;;;;5047969;28;20052;-76
2021/07/20 07:22:31;;;;;;;4.60;3.95;;;25.70;85.10;;;;;;5033973;28;20438;-76
2021/07/20 07:24:57;;;;;;;8.32;3.90;;;25.80;84.40;;;;;;5060917;28;20099;-73
2021/07/20 07:27:25;;;;;;;11.52;3.90;;;25.90;84.80;;;;;;5063689;28;20055;-73
2021/07/20 07:29:52;;;;;;;11.57;4.05;;;26.00;85.90;;;;;;5055031;28;20395;-74
2021/07/20 07:32:20;;;;;;;10.93;3.95;;;26.10;83.20;;;;;;5054540;28;20021;-74
2021/07/20 07:34:46;;;;;;;9.13;3.45;;;26.20;82.10;;;;;;5050131;28;20025;-74
2021/07/20 07:37:18;;;;;;;11.07;3.83;;;26.20;82.00;;;;;;5060006;28;20029;-73
2021/07/20 07:39:45;;;;;;;;;;;26.20;83.90;;;;;;5052962;28;20597;-74
2021/07/20 07:42:12;;;;;;;9.55;4.07;;;26.20;81.20;;;;;;5051335;28;21275;-74
2021/07/20 07:44:40;;;;;;;7.45;3.70;;;26.30;80.30;;;;;;5052135;28;20029;-73
2021/07/20 07:47:08;;;;;;;9.30;3.90;;;26.30;81.70;;;;;;5054938;28;20732;-73
2021/07/20 07:49:34;;;;;;;7.95;4.10;;;26.30;82.60;;;;;;5052070;28;20033;-73
2021/07/20 07:52:01;;;;;;;13.35;3.85;;;26.30;81.10;;;;;;5059336;28;20531;-73
2021/07/20 07:54:27;;;;;;;9.70;3.92;;;26.30;80.50;;;;;;5056328;28;20079;-74
2021/07/20 07:57:00;;;;;;;15.93;4.10;;;26.30;80.60;;;;;;5053319;28;20052;-74
2021/07/20 07:59:30;;;;;;;11.82;4.90;;;26.40;80.00;;;;;;5061107;28;20033;-76
2021/07/20 08:01:58;;;;;;;10.38;4.45;;;26.30;80.80;;;;;;5056085;28;20132;-74
2021/07/20 08:04:26;;;;;;;11.45;5.10;;;26.30;81.10;;;;;;5060220;28;20032;-74
2021/07/20 08:06:54;;;;;;;8.35;4.38;;;26.40;81.80;;;;;;5064154;28;20035;-74
2021/07/20 08:09:23;;;;;;;11.50;4.97;;;26.30;81.30;;;;;;5058167;28;20094;-73
2021/07/20 08:11:50;;;;;;;12.18;4.00;;;26.40;81.60;;;;;;5060303;28;20025;-73
2021/07/20 08:14:19;;;;;;;10.48;4.50;;;26.50;80.50;;;;;;5057885;28;20024;-74
2021/07/20 08:16:54;;;;;;;7.35;4.15;;;26.60;80.10;;;;;;5039240;28;20696;-74
2021/07/20 08:19:31;;;;;;;10.57;3.88;;;26.60;81.90;;;;;;5053529;28;20033;-74
2021/07/20 08:22:03;;;;;;;10.57;4.00;;;26.60;81.60;;;;;;5038298;28;20045;-74
2021/07/20 08:24:34;;;;;;;5.63;3.70;;;26.60;81.30;;;;;;5015739;28;20396;-73
2021/07/20 08:27:07;;;;;;;11.38;4.15;;;26.60;78.70;;;;;;5025038;28;20590;-73
2021/07/20 08:29:37;;;;;;;10.73;3.50;;;26.60;80.70;;;;;;5013404;28;20116;-73
2021/07/20 08:32:08;;;;;;;10.00;3.83;;;26.70;82.30;;;;;;5037567;28;20748;-73
2021/07/20 08:34:41;;;;;;;7.22;4.38;;;26.80;78.20;;;;;;5008851;28;20056;-74
2021/07/20 08:37:08;;;;;;;9.90;4.28;;;26.90;78.30;;;;;;5039041;28;20526;-73
2021/07/20 08:39:35;;;;;;;11.30;4.10;;;27.10;79.90;;;;;;5016647;28;20037;-75
2021/07/20 08:42:20;;;;;;;12.02;4.90;;;27.10;77.90;;;;;;5041021;28;20033;-74
2021/07/20 08:45:06;;;;;;;10.98;4.03;;;27.10;77.60;;;;;;5017946;28;20030;-75
2021/07/20 08:47:40;;;;;;;12.40;4.30;;;27.20;75.50;;;;;;5021649;28;20021;-75
2021/07/20 08:50:28;;;;;;;10.63;4.50;;;27.30;74.80;;;;;;5043924;28;20036;-73
2021/07/20 08:53:03;;;;;;;6.30;4.07;;;27.30;74.60;;;;;;5034304;28;20518;-75
2021/07/20 08:55:32;;;;;;;9.98;4.20;;;27.30;74.50;;;;;;5028252;28;20037;-75
2021/07/20 08:58:06;;;;;;;6.95;4.20;;;27.30;75.80;;;;;;5042697;28;20033;-75
2021/07/20 09:00:40;;;;;;;11.40;4.50;;;27.30;76.70;;;;;;5035696;28;20026;-73
2021/07/20 09:03:46;;;;;;;7.43;3.80;;;27.40;74.10;;;;;;5041860;28;20037;-74
2021/07/20 09:06:15;;;;;;;9.00;3.90;;;27.60;73.50;;;;;;4994657;28;20120;-74
2021/07/20 09:09:04;;;;;;;11.90;4.00;;;27.70;71.80;;;;;;5007767;28;20051;-73
2021/07/20 09:11:42;;;;;;;6.97;4.57;;;27.70;74.30;;;;;;5023846;28;20112;-75
2021/07/20 09:14:26;;;;;;;14.27;4.97;;;27.90;74.80;;;;;;5010223;28;20464;-75
2021/07/20 09:17:01;;;;;;;7.85;4.10;;;27.90;73.20;;;;;;5031164;28;20431;-75
2021/07/20 09:19:45;;;;;;;7.35;4.28;;;27.90;76.30;;;;;;5039422;28;20029;-75
2021/07/20 09:22:15;;;;;;;9.90;4.68;;;28.00;74.10;;;;;;5025325;28;20038;-75
2021/07/20 09:25:04;;;;;;;13.90;4.07;;;28.00;74.20;;;;;;5029879;28;20051;-75
2021/07/20 09:27:33;;;;;;;4.80;3.45;;;28.00;70.20;;;;;;5014671;28;20037;-75
2021/07/20 09:30:02;;;;;;;13.88;4.22;;;27.90;71.00;;;;;;5031655;28;20440;-74
2021/07/20 09:32:56;;;;;;;7.32;4.00;;;27.90;71.50;;;;;;5022813;28;20481;-73
2021/07/20 09:35:26;;;;;;;4.95;3.97;;;28.00;65.40;;;;;;5030559;28;20443;-73
2021/07/20 09:38:17;;;;;;;5.70;3.43;;;28.00;69.40;;;;;;5030441;28;20026;-73
2021/07/20 09:41:16;;;;;;;8.55;3.97;;;28.10;67.90;;;;;;5023267;28;20029;-73
2021/07/20 09:43:48;;;;;;;9.18;4.35;;;28.00;68.50;;;;;;4993965;28;20050;-73
2021/07/20 09:46:33;;;;;;;9.82;3.88;;;28.20;71.70;;;;;;5031721;28;20397;-74
2021/07/20 09:49:04;;;;;;;11.10;4.30;;;28.50;71.10;;;;;;5028394;28;20516;-74
2021/07/20 09:51:30;;;;;;;7.50;4.18;;;28.40;71.20;;;;;;5028771;28;20496;-74
2021/07/20 09:54:16;;;;;;;10.88;3.70;;;28.40;70.90;;;;;;5028944;28;20026;-73
2021/07/20 09:57:04;;;;;;;5.45;3.17;;;28.50;67.00;;;;;;5000727;28;20041;-74
2021/07/20 09:59:50;;;;;;;5.57;3.45;;;28.50;70.00;;;;;;5032630;28;20029;-74
2021/07/20 10:02:28;;;;;;;9.77;3.70;;;28.50;69.20;;;;;;5024538;28;20053;-74
2021/07/20 10:05:02;;;;;;;7.53;3.83;;;28.50;71.40;;;;;;5027604;28;20056;-74
2021/07/20 10:07:36;;;;;;;11.60;3.67;;;28.70;66.10;;;;;;5028384;28;20030;-74
2021/07/20 10:10:24;;;;;;;7.13;3.72;;;28.80;65.00;;;;;;5024767;28;20580;-75
2021/07/20 10:13:14;;;;;;;5.13;3.53;;;29.00;64.70;;;;;;5018548;28;20079;-75
2021/07/20 10:15:46;;;;;;;5.63;3.53;;;29.00;62.70;;;;;;5019129;28;20021;-75
2021/07/20 10:18:34;;;;;;;6.35;3.15;;;29.00;66.40;;;;;;5005640;28;20056;-74
2021/07/20 10:21:02;;;;;;;4.95;3.58;;;29.00;66.50;;;;;;5046951;28;20063;-75
2021/07/20 10:24:02;;;;;;;7.18;3.20;;;28.90;67.40;;;;;;5043379;28;20092;-75
2021/07/20 10:26:32;;;;;;;8.38;3.97;;;29.10;65.00;;;;;;5018768;28;20037;-75
2021/07/20 10:29:03;;;;;;;5.55;3.40;;;29.10;66.10;;;;;;5043181;28;20018;-74
2021/07/20 10:31:54;;;;;;;5.25;2.90;;;29.20;69.50;;;;;;5040471;28;20436;-74
2021/07/20 10:34:24;;;;;;;7.68;3.60;;;29.20;66.20;;;;;;5044873;28;20107;-74
2021/07/20 10:37:04;;;;;;;4.28;3.00;;;29.30;69.10;;;;;;5033098;28;20483;-75
2021/07/20 10:39:37;;;;;;;6.07;2.88;;;29.60;64.50;;;;;;5049661;28;20056;-75
2021/07/20 10:42:09;;;;;;;5.25;2.97;;;29.60;63.70;;;;;;5053249;28;20037;-75
2021/07/20 10:44:58;;;;;;;7.15;3.08;;;29.70;63.10;;;;;;5027521;28;20094;-75
2021/07/20 10:47:38;;;;;;;8.07;3.05;;;29.80;63.30;;;;;;5033224;28;20033;-75
2021/07/20 10:50:22;;;;;;;7.00;2.85;;;29.90;60.30;;;;;;5051487;28;20025;-75
2021/07/20 10:52:55;;;;;;;5.60;3.05;;;29.80;62.10;;;;;;5050758;28;20017;-75
2021/07/20 10:56:02;;;;;;;6.32;3.20;;;29.90;60.90;;;;;;5044919;28;20056;-75
2021/07/20 10:59:05;;;;;;;6.53;3.92;;;30.00;64.90;;;;;;5048213;28;20064;-75
2021/07/20 11:01:33;;;;;;;9.07;3.53;;;30.00;65.50;;;;;;5048053;28;20060;-75
2021/07/20 11:04:16;;;;;;;11.88;3.22;;;30.10;64.50;;;;;;5047127;28;20029;-75
2021/07/20 11:06:45;;;;;;;13.48;3.65;;;30.20;65.80;;;;;;5043128;28;20029;-75
2021/07/20 11:09:22;;;;;;;9.45;3.40;;;30.20;68.80;;;;;;5039077;28;20623;-75
2021/07/20 11:11:53;;;;;;;8.73;3.28;;;30.20;67.30;;;;;;5049113;28;20029;-75
2021/07/20 11:14:22;;;;;;;3.92;3.53;;;30.30;67.90;;;;;;5044535;28;20139;-75
2021/07/20 11:16:48;;;;;;;5.97;3.75;;;30.40;62.80;;;;;;5046399;28;20370;-75
2021/07/20 11:19:15;;;;;;;3.83;3.42;;;30.60;59.60;;;;;;5049252;28;20036;-75
2021/07/20 11:21:43;;;;;;;7.25;3.38;;;30.60;59.70;;;;;;5055132;28;20072;-75
2021/07/20 11:24:11;;;;;;;7.25;3.05;;;30.70;61.40;;;;;;5065132;28;20726;-75
2021/07/20 11:26:38;;;;;;;8.55;3.78;;;30.60;61.10;;;;;;5060266;28;20029;-74
2021/07/20 11:29:04;;;;;;;4.78;3.45;;;30.80;62.60;;;;;;5068671;28;20024;-74
2021/07/20 11:31:42;;;;;;;8.23;3.30;;;30.70;59.40;;;;;;5063583;28;20095;-74
2021/07/20 11:34:11;;;;;;;8.93;4.30;;;30.80;61.90;;;;;;5052500;28;20029;-75
2021/07/20 11:36:44;;;;;;;8.38;3.70;;;30.80;60.40;;;;;;5057978;28;20337;-74
2021/07/20 11:39:15;;;;;;;9.52;3.80;;;30.90;58.50;;;;;;5053441;28;20032;-74
2021/07/20 11:42:00;;;;;;;6.80;3.63;;;30.90;60.40;;;;;;5040866;28;20033;-75
2021/07/20 11:44:43;;;;;;;11.35;3.25;;;31.00;58.80;;;;;;5052962;28;20074;-74
2021/07/20 11:47:18;;;;;;;5.43;3.38;;;31.10;59.70;;;;;;5057250;28;20037;-74
2021/07/20 11:50:02;;;;;;;6.57;3.38;;;31.20;61.00;;;;;;5060711;28;20029;-75
2021/07/20 11:52:39;;;;;;;5.47;2.88;;;31.20;57.70;;;;;;5058015;28;20103;-75
2021/07/20 11:55:28;;;;;;;6.32;4.15;;;31.20;58.60;;;;;;5056919;28;20017;-74
2021/07/20 11:58:15;;;;;;;8.32;3.42;;;31.30;59.70;;;;;;5055952;28;20043;-75
2021/07/20 12:00:53;;;;;;;5.38;3.42;;;31.30;60.00;;;;;;5057890;28;20025;-74
2021/07/20 12:03:49;;;;;;;5.20;3.55;;;31.50;61.20;;;;;;5057204;28;20070;-75
2021/07/20 12:06:27;;;;;;;8.43;3.65;;;31.60;61.00;;;;;;5027222;28;20044;-74
2021/07/20 12:09:14;;;;;;;8.75;3.90;;;31.70;60.90;;;;;;5050206;28;20024;-75
2021/07/20 12:11:46;;;;;;;4.30;3.40;;;31.80;61.10;;;;;;5055415;28;20021;-75
2021/07/20 12:14:12;;;;;;;8.70;3.63;;;31.80;58.60;;;;;;5061766;28;20658;-75
2021/07/20 12:16:44;;;;;;;7.53;3.13;;;31.90;59.80;;;;;;5060548;28;20036;-73
2021/07/20 12:19:11;;;;;;;8.07;3.05;;;31.80;55.70;;;;;;5052758;28;20074;-74
2021/07/20 12:21:39;;;;;;;6.32;3.40;;;31.90;57.10;;;;;;5055709;28;20093;-74
2021/07/20 12:24:08;;;;;;;6.15;3.63;;;32.00;57.40;;;;;;5054019;28;20044;-73
2021/07/20 12:26:35;;;;;;;6.03;3.38;;;31.80;54.80;;;;;;5060256;28;20086;-73
2021/07/20 12:29:01;;;;;;;5.82;4.00;;;31.90;59.10;;;;;;5033805;28;20021;-73
2021/07/20 12:31:34;;;;;;;6.03;3.28;;;32.10;59.00;;;;;;5051668;28;20016;-73
2021/07/20 12:34:02;;;;;;;7.47;3.60;;;32.10;57.50;;;;;;5051167;28;20028;-74
2021/07/20 12:36:28;;;;;;;6.03;3.72;;;32.30;59.70;;;;;;5054853;28;20498;-74
2021/07/20 12:39:13;;;;;;;6.35;3.65;;;32.30;57.20;;;;;;5060673;28;20037;-73
2021/07/20 12:41:47;;;;;;;6.32;4.18;;;32.30;59.50;;;;;;5032187;28;20068;-74
2021/07/20 12:44:14;;;;;;;5.05;3.63;;;32.50;59.30;;;;;;5054718;28;20025;-74
2021/07/20 12:46:41;;;;;;;5.72;3.80;;;32.50;58.10;;;;;;5054539;28;20033;-74
2021/07/20 12:49:07;;;;;;;6.55;3.83;;;32.60;59.50;;;;;;5054027;28;20496;-73
2021/07/20 12:51:33;;;;;;;4.32;3.58;;;32.50;56.80;;;;;;5054071;28;20033;-75
2021/07/20 12:53:59;;;;;;;5.47;3.75;;;32.50;55.70;;;;;;5062065;28;20016;-75
2021/07/20 12:56:29;;;;;;;5.97;3.53;;;32.40;56.30;;;;;;5056256;28;20086;-74
2021/07/20 12:59:00;;;;;;;3.97;3.58;;;32.50;56.60;;;;;;5061445;28;20043;-75
2021/07/20 13:01:26;;;;;;;9.25;4.68;;;32.60;57.10;;;;;;5046032;28;20032;-75
2021/07/20 13:03:52;;;;;;;7.93;4.28;;;32.60;55.10;;;;;;5049185;28;20028;-74
2021/07/20 13:06:20;;;;;;;8.88;3.50;;;32.60;55.30;;;;;;5053845;28;20419;-73
2021/07/20 13:08:52;;;;;;;10.05;4.70;;;32.60;56.00;;;;;;5051762;28;20550;-73
2021/07/20 13:11:19;;;;;;;9.65;4.00;;;32.70;57.10;;;;;;5027984;28;20043;-74
2021/07/20 13:13:46;;;;;;;8.38;4.18;;;32.60;57.20;;;;;;5029744;28;20051;-73